sensor_id;sensor_type;location;lat;lon;timestamp;P1;durP1;ratioP1;P2;durP2;ratioP2
20629;SDS011;17386;43.846;25.950;2023-02-28T00:00:51;16.30;;;7.28;;
20629;SDS011;17386;43.846;25.950;2023-02-28T00:03:16;15.93;;;7.80;;
20629;SDS011;17386;43.846;25.950;2023-02-28T00:05:42;18.73;;;7.50;;
20629;SDS011;17386;43.846;25.950;2023-02-28T00:08:08;14.60;;;7.25;;
20629;SDS011;17386;43.846;25.950;2023-02-28T00:10:34;15.70;;;7.15;;
20629;SDS011;17386;43.846;25.950;2023-02-28T00:13:00;16.52;;;7.30;;
20629;SDS011;17386;43.846;25.950;2023-02-28T00:15:29;13.10;;;6.45;;
20629;SDS011;17386;43.846;25.950;2023-02-28T00:17:54;14.98;;;8.05;;
20629;SDS011;17386;43.846;25.950;2023-02-28T00:20:20;18.48;;;7.18;;
20629;SDS011;17386;43.846;25.950;2023-02-28T00:22:46;14.60;;;7.70;;
20629;SDS011;17386;43.846;25.950;2023-02-28T00:25:15;12.98;;;6.78;;
20629;SDS011;17386;43.846;25.950;2023-02-28T00:27:43;14.57;;;7.20;;
20629;SDS011;17386;43.846;25.950;2023-02-28T00:30:11;13.23;;;7.43;;
20629;SDS011;17386;43.846;25.950;2023-02-28T00:32:39;16.38;;;7.88;;
20629;SDS011;17386;43.846;25.950;2023-02-28T00:35:05;14.85;;;7.50;;
20629;SDS011;17386;43.846;25.950;2023-02-28T00:37:31;14.70;;;7.13;;
20629;SDS011;17386;43.846;25.950;2023-02-28T00:39:57;13.63;;;6.93;;
20629;SDS011;17386;43.846;25.950;2023-02-28T00:42:23;12.68;;;6.72;;
20629;SDS011;17386;43.846;25.950;2023-02-28T00:44:49;16.75;;;7.68;;
20629;SDS011;17386;43.846;25.950;2023-02-28T00:47:14;14.50;;;7.78;;
20629;SDS011;17386;43.846;25.950;2023-02-28T00:49:39;15.25;;;7.22;;
20629;SDS011;17386;43.846;25.950;2023-02-28T00:52:05;14.70;;;7.28;;
20629;SDS011;17386;43.846;25.950;2023-02-28T00:54:30;12.73;;;6.80;;
20629;SDS011;17386;43.846;25.950;2023-02-28T00:56:56;14.05;;;6.82;;
20629;SDS011;17386;43.846;25.950;2023-02-28T00:59:21;17.17;;;7.35;;
20629;SDS011;17386;43.846;25.950;2023-02-28T01:01:47;12.35;;;6.50;;
20629;SDS011;17386;43.846;25.950;2023-02-28T01:04:12;13.98;;;6.70;;
20629;SDS011;17386;43.846;25.950;2023-02-28T01:06:38;14.10;;;6.88;;
20629;SDS011;17386;43.846;25.950;2023-02-28T01:09:05;14.27;;;7.75;;
20629;SDS011;17386;43.846;25.950;2023-02-28T01:11:31;16.15;;;7.30;;
20629;SDS011;17386;43.846;25.950;2023-02-28T01:13:58;16.83;;;7.28;;
20629;SDS011;17386;43.846;25.950;2023-02-28T01:16:24;13.75;;;7.03;;
20629;SDS011;17386;43.846;25.950;2023-02-28T01:18:50;12.35;;;5.82;;
20629;SDS011;17386;43.846;25.950;2023-02-28T01:21:16;15.88;;;7.25;;
20629;SDS011;17386;43.846;25.950;2023-02-28T01:23:44;15.40;;;6.95;;
20629;SDS011;17386;43.846;25.950;2023-02-28T01:26:16;13.70;;;6.97;;
20629;SDS011;17386;43.846;25.950;2023-02-28T01:28:43;15.90;;;7.90;;
20629;SDS011;17386;43.846;25.950;2023-02-28T01:31:09;15.20;;;7.45;;
20629;SDS011;17386;43.846;25.950;2023-02-28T01:33:35;14.80;;;7.00;;
20629;SDS011;17386;43.846;25.950;2023-02-28T01:36:02;17.08;;;8.00;;
20629;SDS011;17386;43.846;25.950;2023-02-28T01:38:33;15.05;;;7.18;;
20629;SDS011;17386;43.846;25.950;2023-02-28T01:40:59;14.02;;;6.97;;
20629;SDS011;17386;43.846;25.950;2023-02-28T01:43:29;16.02;;;7.30;;
20629;SDS011;17386;43.846;25.950;2023-02-28T01:45:57;15.02;;;7.72;;
20629;SDS011;17386;43.846;25.950;2023-02-28T01:48:31;15.43;;;7.32;;
20629;SDS011;17386;43.846;25.950;2023-02-28T01:51:01;19.92;;;7.93;;
20629;SDS011;17386;43.846;25.950;2023-02-28T01:53:34;15.02;;;7.53;;
20629;SDS011;17386;43.846;25.950;2023-02-28T01:56:05;14.80;;;6.32;;
20629;SDS011;17386;43.846;25.950;2023-02-28T01:58:32;14.68;;;6.38;;
20629;SDS011;17386;43.846;25.950;2023-02-28T02:00:58;16.10;;;7.75;;
20629;SDS011;17386;43.846;25.950;2023-02-28T02:03:23;17.08;;;7.53;;
20629;SDS011;17386;43.846;25.950;2023-02-28T02:05:49;13.02;;;6.47;;
20629;SDS011;17386;43.846;25.950;2023-02-28T02:08:17;17.80;;;8.18;;
20629;SDS011;17386;43.846;25.950;2023-02-28T02:10:46;15.07;;;7.35;;
20629;SDS011;17386;43.846;25.950;2023-02-28T02:16:09;17.88;;;8.45;;
20629;SDS011;17386;43.846;25.950;2023-02-28T02:27:06;15.60;;;6.78;;
20629;SDS011;17386;43.846;25.950;2023-02-28T02:35:01;17.30;;;6.90;;
20629;SDS011;17386;43.846;25.950;2023-02-28T02:40:38;16.95;;;6.70;;
20629;SDS011;17386;43.846;25.950;2023-02-28T02:43:17;16.17;;;6.63;;
20629;SDS011;17386;43.846;25.950;2023-02-28T02:45:49;16.38;;;7.03;;
20629;SDS011;17386;43.846;25.950;2023-02-28T02:48:20;17.52;;;7.15;;
20629;SDS011;17386;43.846;25.950;2023-02-28T02:50:51;14.73;;;5.93;;
20629;SDS011;17386;43.846;25.950;2023-02-28T02:53:21;15.00;;;6.88;;
20629;SDS011;17386;43.846;25.950;2023-02-28T02:55:52;17.50;;;7.00;;
20629;SDS011;17386;43.846;25.950;2023-02-28T02:58:21;16.13;;;7.95;;
20629;SDS011;17386;43.846;25.950;2023-02-28T03:00:53;18.38;;;7.18;;
20629;SDS011;17386;43.846;25.950;2023-02-28T03:03:23;17.33;;;7.32;;
20629;SDS011;17386;43.846;25.950;2023-02-28T03:05:55;18.90;;;8.95;;
20629;SDS011;17386;43.846;25.950;2023-02-28T03:08:22;19.00;;;7.80;;
20629;SDS011;17386;43.846;25.950;2023-02-28T03:10:51;16.25;;;7.22;;
20629;SDS011;17386;43.846;25.950;2023-02-28T03:24:49;19.80;;;8.07;;
20629;SDS011;17386;43.846;25.950;2023-02-28T03:30:22;18.33;;;8.50;;
20629;SDS011;17386;43.846;25.950;2023-02-28T03:33:06;18.15;;;8.07;;
20629;SDS011;17386;43.846;25.950;2023-02-28T03:35:47;21.48;;;8.30;;
20629;SDS011;17386;43.846;25.950;2023-02-28T03:38:20;19.23;;;7.72;;
20629;SDS011;17386;43.846;25.950;2023-02-28T03:41:07;20.98;;;10.13;;
20629;SDS011;17386;43.846;25.950;2023-02-28T03:43:41;19.20;;;8.20;;
20629;SDS011;17386;43.846;25.950;2023-02-28T03:46:10;18.05;;;8.15;;
20629;SDS011;17386;43.846;25.950;2023-02-28T03:48:42;20.02;;;8.57;;
20629;SDS011;17386;43.846;25.950;2023-02-28T03:51:12;20.02;;;8.52;;
20629;SDS011;17386;43.846;25.950;2023-02-28T03:53:44;22.10;;;9.68;;
20629;SDS011;17386;43.846;25.950;2023-02-28T03:56:18;19.38;;;8.68;;
20629;SDS011;17386;43.846;25.950;2023-02-28T04:01:46;20.80;;;9.40;;
20629;SDS011;17386;43.846;25.950;2023-02-28T04:04:13;26.00;;;9.85;;
20629;SDS011;17386;43.846;25.950;2023-02-28T04:06:41;22.30;;;8.98;;
20629;SDS011;17386;43.846;25.950;2023-02-28T04:09:09;21.33;;;8.98;;
20629;SDS011;17386;43.846;25.950;2023-02-28T04:11:44;22.35;;;8.65;;
20629;SDS011;17386;43.846;25.950;2023-02-28T04:14:13;23.00;;;9.65;;
20629;SDS011;17386;43.846;25.950;2023-02-28T04:16:39;22.92;;;9.23;;
20629;SDS011;17386;43.846;25.950;2023-02-28T04:19:06;19.35;;;7.88;;
20629;SDS011;17386;43.846;25.950;2023-02-28T04:21:34;23.45;;;9.68;;
20629;SDS011;17386;43.846;25.950;2023-02-28T04:24:04;23.60;;;9.88;;
20629;SDS011;17386;43.846;25.950;2023-02-28T04:26:30;29.33;;;11.00;;
20629;SDS011;17386;43.846;25.950;2023-02-28T04:28:57;31.00;;;11.20;;
20629;SDS011;17386;43.846;25.950;2023-02-28T04:31:23;28.13;;;11.43;;
20629;SDS011;17386;43.846;25.950;2023-02-28T04:33:48;25.83;;;10.68;;
20629;SDS011;17386;43.846;25.950;2023-02-28T04:36:14;27.98;;;11.40;;
20629;SDS011;17386;43.846;25.950;2023-02-28T04:38:39;20.23;;;8.38;;
20629;SDS011;17386;43.846;25.950;2023-02-28T04:41:05;26.33;;;10.85;;
20629;SDS011;17386;43.846;25.950;2023-02-28T04:43:31;26.70;;;10.50;;
20629;SDS011;17386;43.846;25.950;2023-02-28T04:45:57;24.58;;;8.85;;
20629;SDS011;17386;43.846;25.950;2023-02-28T04:48:29;27.58;;;10.32;;
20629;SDS011;17386;43.846;25.950;2023-02-28T04:51:00;25.92;;;10.52;;
20629;SDS011;17386;43.846;25.950;2023-02-28T04:53:30;25.65;;;9.95;;
20629;SDS011;17386;43.846;25.950;2023-02-28T04:55:56;28.95;;;11.25;;
20629;SDS011;17386;43.846;25.950;2023-02-28T04:58:22;28.70;;;9.85;;
20629;SDS011;17386;43.846;25.950;2023-02-28T05:00:48;25.55;;;10.40;;
20629;SDS011;17386;43.846;25.950;2023-02-28T05:03:14;30.98;;;11.55;;
20629;SDS011;17386;43.846;25.950;2023-02-28T05:05:40;33.45;;;13.40;;
20629;SDS011;17386;43.846;25.950;2023-02-28T05:08:05;31.27;;;12.52;;
20629;SDS011;17386;43.846;25.950;2023-02-28T05:10:31;28.58;;;11.23;;
20629;SDS011;17386;43.846;25.950;2023-02-28T05:12:56;35.92;;;11.82;;
20629;SDS011;17386;43.846;25.950;2023-02-28T05:15:22;29.40;;;11.43;;
20629;SDS011;17386;43.846;25.950;2023-02-28T05:17:47;33.45;;;11.95;;
20629;SDS011;17386;43.846;25.950;2023-02-28T05:20:13;28.25;;;11.18;;
20629;SDS011;17386;43.846;25.950;2023-02-28T05:22:39;25.65;;;9.23;;
20629;SDS011;17386;43.846;25.950;2023-02-28T05:25:05;29.83;;;12.02;;
20629;SDS011;17386;43.846;25.950;2023-02-28T05:27:31;24.90;;;9.43;;
20629;SDS011;17386;43.846;25.950;2023-02-28T05:29:56;29.83;;;11.75;;
20629;SDS011;17386;43.846;25.950;2023-02-28T05:32:22;26.30;;;11.30;;
20629;SDS011;17386;43.846;25.950;2023-02-28T05:34:47;32.83;;;13.15;;
20629;SDS011;17386;43.846;25.950;2023-02-28T05:37:13;31.77;;;12.23;;
20629;SDS011;17386;43.846;25.950;2023-02-28T05:39:40;29.92;;;10.90;;
20629;SDS011;17386;43.846;25.950;2023-02-28T05:42:06;33.42;;;11.77;;
20629;SDS011;17386;43.846;25.950;2023-02-28T05:44:32;33.88;;;12.38;;
20629;SDS011;17386;43.846;25.950;2023-02-28T05:46:58;36.40;;;15.38;;
20629;SDS011;17386;43.846;25.950;2023-02-28T05:49:23;31.13;;;12.35;;
20629;SDS011;17386;43.846;25.950;2023-02-28T05:51:49;32.13;;;10.93;;
20629;SDS011;17386;43.846;25.950;2023-02-28T05:54:14;28.15;;;10.10;;
20629;SDS011;17386;43.846;25.950;2023-02-28T05:56:39;31.38;;;11.90;;
20629;SDS011;17386;43.846;25.950;2023-02-28T05:59:08;35.20;;;12.93;;
20629;SDS011;17386;43.846;25.950;2023-02-28T06:01:36;36.47;;;12.85;;
20629;SDS011;17386;43.846;25.950;2023-02-28T06:04:04;33.75;;;11.07;;
20629;SDS011;17386;43.846;25.950;2023-02-28T06:06:32;31.38;;;10.55;;
20629;SDS011;17386;43.846;25.950;2023-02-28T06:08:59;28.00;;;11.55;;
20629;SDS011;17386;43.846;25.950;2023-02-28T06:11:25;29.20;;;11.30;;
20629;SDS011;17386;43.846;25.950;2023-02-28T06:14:00;30.08;;;11.30;;
20629;SDS011;17386;43.846;25.950;2023-02-28T06:16:26;32.70;;;11.65;;
20629;SDS011;17386;43.846;25.950;2023-02-28T06:18:53;37.55;;;14.40;;
20629;SDS011;17386;43.846;25.950;2023-02-28T06:21:20;31.48;;;12.43;;
20629;SDS011;17386;43.846;25.950;2023-02-28T06:23:46;31.30;;;12.73;;
20629;SDS011;17386;43.846;25.950;2023-02-28T06:26:12;31.33;;;12.00;;
20629;SDS011;17386;43.846;25.950;2023-02-28T06:28:37;24.98;;;10.23;;
20629;SDS011;17386;43.846;25.950;2023-02-28T06:31:07;32.58;;;11.13;;
20629;SDS011;17386;43.846;25.950;2023-02-28T06:33:37;24.50;;;10.25;;
20629;SDS011;17386;43.846;25.950;2023-02-28T06:36:03;37.10;;;14.48;;
20629;SDS011;17386;43.846;25.950;2023-02-28T06:38:30;30.88;;;11.35;;
20629;SDS011;17386;43.846;25.950;2023-02-28T06:40:56;29.55;;;11.93;;
20629;SDS011;17386;43.846;25.950;2023-02-28T06:43:22;30.23;;;11.20;;
20629;SDS011;17386;43.846;25.950;2023-02-28T06:45:48;28.00;;;11.27;;
20629;SDS011;17386;43.846;25.950;2023-02-28T06:48:14;28.95;;;10.00;;
20629;SDS011;17386;43.846;25.950;2023-02-28T06:50:39;31.95;;;11.27;;
20629;SDS011;17386;43.846;25.950;2023-02-28T06:53:05;32.38;;;11.65;;
20629;SDS011;17386;43.846;25.950;2023-02-28T06:55:31;33.00;;;12.52;;
20629;SDS011;17386;43.846;25.950;2023-02-28T06:57:56;30.65;;;12.60;;
20629;SDS011;17386;43.846;25.950;2023-02-28T07:00:22;34.70;;;13.35;;
20629;SDS011;17386;43.846;25.950;2023-02-28T07:02:48;41.35;;;17.08;;
20629;SDS011;17386;43.846;25.950;2023-02-28T07:05:13;51.00;;;22.90;;
20629;SDS011;17386;43.846;25.950;2023-02-28T07:07:39;40.30;;;17.75;;
20629;SDS011;17386;43.846;25.950;2023-02-28T07:10:09;37.15;;;15.23;;
20629;SDS011;17386;43.846;25.950;2023-02-28T07:12:38;37.22;;;14.13;;
20629;SDS011;17386;43.846;25.950;2023-02-28T07:15:04;36.90;;;13.85;;
20629;SDS011;17386;43.846;25.950;2023-02-28T07:17:30;36.45;;;13.35;;
20629;SDS011;17386;43.846;25.950;2023-02-28T07:19:55;26.67;;;10.82;;
20629;SDS011;17386;43.846;25.950;2023-02-28T07:22:21;27.45;;;10.90;;
20629;SDS011;17386;43.846;25.950;2023-02-28T07:24:46;34.33;;;13.30;;
20629;SDS011;17386;43.846;25.950;2023-02-28T07:27:12;38.78;;;13.90;;
20629;SDS011;17386;43.846;25.950;2023-02-28T07:29:37;32.78;;;12.82;;
20629;SDS011;17386;43.846;25.950;2023-02-28T07:32:03;30.50;;;12.60;;
20629;SDS011;17386;43.846;25.950;2023-02-28T07:34:28;40.00;;;15.77;;
20629;SDS011;17386;43.846;25.950;2023-02-28T07:36:54;60.22;;;26.75;;
20629;SDS011;17386;43.846;25.950;2023-02-28T07:39:20;35.58;;;12.98;;
20629;SDS011;17386;43.846;25.950;2023-02-28T07:41:47;37.22;;;13.73;;
20629;SDS011;17386;43.846;25.950;2023-02-28T07:44:12;30.67;;;11.75;;
20629;SDS011;17386;43.846;25.950;2023-02-28T07:46:38;34.72;;;13.02;;
20629;SDS011;17386;43.846;25.950;2023-02-28T07:49:04;34.33;;;12.32;;
20629;SDS011;17386;43.846;25.950;2023-02-28T07:51:30;34.88;;;13.38;;
20629;SDS011;17386;43.846;25.950;2023-02-28T07:53:57;33.17;;;13.35;;
20629;SDS011;17386;43.846;25.950;2023-02-28T07:56:23;30.88;;;12.13;;
20629;SDS011;17386;43.846;25.950;2023-02-28T07:58:48;34.90;;;13.07;;
20629;SDS011;17386;43.846;25.950;2023-02-28T08:01:13;31.83;;;12.85;;
20629;SDS011;17386;43.846;25.950;2023-02-28T08:03:39;33.30;;;12.32;;
20629;SDS011;17386;43.846;25.950;2023-02-28T08:06:05;32.83;;;13.23;;
20629;SDS011;17386;43.846;25.950;2023-02-28T08:08:32;31.73;;;12.57;;
20629;SDS011;17386;43.846;25.950;2023-02-28T08:10:58;33.15;;;13.90;;
20629;SDS011;17386;43.846;25.950;2023-02-28T08:13:25;38.97;;;16.33;;
20629;SDS011;17386;43.846;25.950;2023-02-28T08:15:52;47.65;;;22.88;;
20629;SDS011;17386;43.846;25.950;2023-02-28T08:18:19;41.15;;;18.05;;
20629;SDS011;17386;43.846;25.950;2023-02-28T08:20:44;30.60;;;12.65;;
20629;SDS011;17386;43.846;25.950;2023-02-28T08:23:09;25.10;;;11.65;;
20629;SDS011;17386;43.846;25.950;2023-02-28T08:25:35;30.13;;;10.48;;
20629;SDS011;17386;43.846;25.950;2023-02-28T08:28:00;36.78;;;13.70;;
20629;SDS011;17386;43.846;25.950;2023-02-28T08:30:26;32.20;;;12.90;;
20629;SDS011;17386;43.846;25.950;2023-02-28T08:32:51;29.83;;;11.05;;
20629;SDS011;17386;43.846;25.950;2023-02-28T08:35:17;34.15;;;12.30;;
20629;SDS011;17386;43.846;25.950;2023-02-28T08:37:42;31.33;;;13.35;;
20629;SDS011;17386;43.846;25.950;2023-02-28T08:40:08;34.35;;;12.38;;
20629;SDS011;17386;43.846;25.950;2023-02-28T08:42:34;32.72;;;12.25;;
20629;SDS011;17386;43.846;25.950;2023-02-28T08:44:59;32.97;;;13.20;;
20629;SDS011;17386;43.846;25.950;2023-02-28T08:47:24;34.90;;;12.10;;
20629;SDS011;17386;43.846;25.950;2023-02-28T08:49:50;25.02;;;9.98;;
20629;SDS011;17386;43.846;25.950;2023-02-28T08:52:15;34.30;;;12.43;;
20629;SDS011;17386;43.846;25.950;2023-02-28T08:54:41;34.90;;;15.10;;
20629;SDS011;17386;43.846;25.950;2023-02-28T08:57:06;32.50;;;13.32;;
20629;SDS011;17386;43.846;25.950;2023-02-28T08:59:32;35.22;;;14.82;;
20629;SDS011;17386;43.846;25.950;2023-02-28T09:01:57;38.45;;;13.98;;
20629;SDS011;17386;43.846;25.950;2023-02-28T09:04:22;33.35;;;12.75;;
20629;SDS011;17386;43.846;25.950;2023-02-28T09:06:48;33.00;;;12.68;;
20629;SDS011;17386;43.846;25.950;2023-02-28T09:09:14;35.55;;;15.25;;
20629;SDS011;17386;43.846;25.950;2023-02-28T09:11:40;44.17;;;17.67;;
20629;SDS011;17386;43.846;25.950;2023-02-28T09:14:05;29.50;;;12.20;;
20629;SDS011;17386;43.846;25.950;2023-02-28T09:16:31;34.35;;;14.15;;
20629;SDS011;17386;43.846;25.950;2023-02-28T09:18:57;31.98;;;12.77;;
20629;SDS011;17386;43.846;25.950;2023-02-28T09:21:23;36.83;;;17.60;;
20629;SDS011;17386;43.846;25.950;2023-02-28T09:23:49;27.67;;;11.15;;
20629;SDS011;17386;43.846;25.950;2023-02-28T09:26:19;29.95;;;11.50;;
20629;SDS011;17386;43.846;25.950;2023-02-28T09:28:49;28.58;;;10.07;;
20629;SDS011;17386;43.846;25.950;2023-02-28T09:31:17;24.05;;;10.80;;
20629;SDS011;17386;43.846;25.950;2023-02-28T09:33:48;31.10;;;12.18;;
20629;SDS011;17386;43.846;25.950;2023-02-28T09:36:15;29.25;;;11.68;;
20629;SDS011;17386;43.846;25.950;2023-02-28T09:38:40;29.35;;;11.75;;
20629;SDS011;17386;43.846;25.950;2023-02-28T09:41:12;28.42;;;12.25;;
20629;SDS011;17386;43.846;25.950;2023-02-28T09:43:40;48.10;;;21.20;;
20629;SDS011;17386;43.846;25.950;2023-02-28T09:46:27;29.30;;;12.45;;
20629;SDS011;17386;43.846;25.950;2023-02-28T09:48:57;27.02;;;11.55;;
20629;SDS011;17386;43.846;25.950;2023-02-28T09:53:55;28.30;;;11.90;;
20629;SDS011;17386;43.846;25.950;2023-02-28T09:56:25;25.55;;;11.68;;
20629;SDS011;17386;43.846;25.950;2023-02-28T09:59:20;27.55;;;11.27;;
20629;SDS011;17386;43.846;25.950;2023-02-28T10:01:57;25.75;;;9.30;;
20629;SDS011;17386;43.846;25.950;2023-02-28T10:04:46;32.42;;;13.07;;
20629;SDS011;17386;43.846;25.950;2023-02-28T10:10:21;28.98;;;11.15;;
20629;SDS011;17386;43.846;25.950;2023-02-28T10:12:55;24.35;;;11.30;;
20629;SDS011;17386;43.846;25.950;2023-02-28T10:15:24;33.63;;;12.23;;
20629;SDS011;17386;43.846;25.950;2023-02-28T10:18:00;26.00;;;11.93;;
20629;SDS011;17386;43.846;25.950;2023-02-28T10:20:30;32.05;;;12.30;;
20629;SDS011;17386;43.846;25.950;2023-02-28T10:23:04;31.88;;;12.50;;
20629;SDS011;17386;43.846;25.950;2023-02-28T10:25:33;35.70;;;16.33;;
20629;SDS011;17386;43.846;25.950;2023-02-28T10:28:05;32.58;;;12.93;;
20629;SDS011;17386;43.846;25.950;2023-02-28T10:30:40;34.10;;;14.05;;
20629;SDS011;17386;43.846;25.950;2023-02-28T10:33:50;33.65;;;14.13;;
20629;SDS011;17386;43.846;25.950;2023-02-28T10:35:59;27.65;;;12.52;;
20629;SDS011;17386;43.846;25.950;2023-02-28T10:38:26;31.70;;;12.85;;
20629;SDS011;17386;43.846;25.950;2023-02-28T10:41:57;30.50;;;12.00;;
20629;SDS011;17386;43.846;25.950;2023-02-28T10:46:54;32.78;;;12.95;;
20629;SDS011;17386;43.846;25.950;2023-02-28T10:49:21;28.27;;;11.65;;
20629;SDS011;17386;43.846;25.950;2023-02-28T10:51:52;29.23;;;11.95;;
20629;SDS011;17386;43.846;25.950;2023-02-28T10:54:27;28.05;;;10.98;;
20629;SDS011;17386;43.846;25.950;2023-02-28T10:59:45;35.53;;;13.32;;
20629;SDS011;17386;43.846;25.950;2023-02-28T11:05:02;55.60;;;20.48;;
20629;SDS011;17386;43.846;25.950;2023-02-28T11:07:50;32.05;;;13.60;;
20629;SDS011;17386;43.846;25.950;2023-02-28T11:10:29;34.47;;;12.25;;
20629;SDS011;17386;43.846;25.950;2023-02-28T11:12:58;38.20;;;13.50;;
20629;SDS011;17386;43.846;25.950;2023-02-28T11:15:33;31.85;;;12.02;;
20629;SDS011;17386;43.846;25.950;2023-02-28T11:18:01;31.48;;;12.05;;
20629;SDS011;17386;43.846;25.950;2023-02-28T11:20:31;26.70;;;11.20;;
20629;SDS011;17386;43.846;25.950;2023-02-28T11:25:30;32.30;;;10.23;;
20629;SDS011;17386;43.846;25.950;2023-02-28T11:28:03;37.60;;;13.75;;
20629;SDS011;17386;43.846;25.950;2023-02-28T11:30:38;28.92;;;10.00;;
20629;SDS011;17386;43.846;25.950;2023-02-28T11:35:50;32.92;;;11.90;;
20629;SDS011;17386;43.846;25.950;2023-02-28T11:38:16;41.63;;;14.15;;
20629;SDS011;17386;43.846;25.950;2023-02-28T11:48:41;31.93;;;12.80;;
20629;SDS011;17386;43.846;25.950;2023-02-28T11:51:21;34.20;;;13.10;;
20629;SDS011;17386;43.846;25.950;2023-02-28T11:54:00;41.35;;;17.73;;
20629;SDS011;17386;43.846;25.950;2023-02-28T11:56:39;44.90;;;17.65;;
20629;SDS011;17386;43.846;25.950;2023-02-28T12:10:20;37.40;;;15.85;;
20629;SDS011;17386;43.846;25.950;2023-02-28T12:12:52;33.88;;;14.60;;
20629;SDS011;17386;43.846;25.950;2023-02-28T12:26:19;38.80;;;15.27;;
20629;SDS011;17386;43.846;25.950;2023-02-28T12:29:07;36.13;;;13.25;;
20629;SDS011;17386;43.846;25.950;2023-02-28T12:31:42;39.35;;;15.68;;
20629;SDS011;17386;43.846;25.950;2023-02-28T12:34:14;40.35;;;15.25;;
20629;SDS011;17386;43.846;25.950;2023-02-28T12:36:45;38.25;;;14.38;;
20629;SDS011;17386;43.846;25.950;2023-02-28T12:39:15;35.55;;;13.93;;
20629;SDS011;17386;43.846;25.950;2023-02-28T12:42:00;38.33;;;15.55;;
20629;SDS011;17386;43.846;25.950;2023-02-28T12:44:34;34.17;;;12.68;;
20629;SDS011;17386;43.846;25.950;2023-02-28T12:47:09;34.92;;;12.45;;
20629;SDS011;17386;43.846;25.950;2023-02-28T12:49:42;43.13;;;15.27;;
20629;SDS011;17386;43.846;25.950;2023-02-28T12:52:14;36.97;;;14.10;;
20629;SDS011;17386;43.846;25.950;2023-02-28T12:59:56;37.47;;;13.70;;
20629;SDS011;17386;43.846;25.950;2023-02-28T13:08:24;37.17;;;14.25;;
20629;SDS011;17386;43.846;25.950;2023-02-28T13:10:46;45.65;;;15.90;;
20629;SDS011;17386;43.846;25.950;2023-02-28T13:13:20;33.65;;;12.85;;
20629;SDS011;17386;43.846;25.950;2023-02-28T13:16:00;34.22;;;14.38;;
20629;SDS011;17386;43.846;25.950;2023-02-28T13:18:33;32.78;;;13.38;;
20629;SDS011;17386;43.846;25.950;2023-02-28T13:21:05;31.65;;;12.02;;
20629;SDS011;17386;43.846;25.950;2023-02-28T13:23:40;34.72;;;13.32;;
20629;SDS011;17386;43.846;25.950;2023-02-28T13:26:05;29.85;;;13.57;;
20629;SDS011;17386;43.846;25.950;2023-02-28T13:31:15;58.75;;;22.05;;
20629;SDS011;17386;43.846;25.950;2023-02-28T13:38:49;34.00;;;13.98;;
20629;SDS011;17386;43.846;25.950;2023-02-28T13:44:05;31.58;;;12.18;;
20629;SDS011;17386;43.846;25.950;2023-02-28T13:57:48;32.33;;;12.07;;
20629;SDS011;17386;43.846;25.950;2023-02-28T14:08:53;31.75;;;11.65;;
20629;SDS011;17386;43.846;25.950;2023-02-28T14:11:27;32.08;;;12.18;;
20629;SDS011;17386;43.846;25.950;2023-02-28T14:13:56;27.20;;;12.18;;
20629;SDS011;17386;43.846;25.950;2023-02-28T14:16:26;29.88;;;12.35;;
20629;SDS011;17386;43.846;25.950;2023-02-28T14:19:43;25.58;;;11.05;;
20629;SDS011;17386;43.846;25.950;2023-02-28T14:24:59;27.77;;;10.88;;
20629;SDS011;17386;43.846;25.950;2023-02-28T14:30:02;26.92;;;11.80;;
20629;SDS011;17386;43.846;25.950;2023-02-28T14:32:51;32.75;;;13.07;;
20629;SDS011;17386;43.846;25.950;2023-02-28T14:38:20;29.67;;;11.43;;
20629;SDS011;17386;43.846;25.950;2023-02-28T14:40:49;25.27;;;10.18;;
20629;SDS011;17386;43.846;25.950;2023-02-28T14:43:22;28.10;;;11.43;;
20629;SDS011;17386;43.846;25.950;2023-02-28T14:45:56;25.40;;;10.55;;
20629;SDS011;17386;43.846;25.950;2023-02-28T14:48:25;23.40;;;9.25;;
20629;SDS011;17386;43.846;25.950;2023-02-28T14:50:53;25.80;;;10.93;;
20629;SDS011;17386;43.846;25.950;2023-02-28T14:53:24;28.63;;;12.73;;
20629;SDS011;17386;43.846;25.950;2023-02-28T14:55:53;29.75;;;13.40;;
20629;SDS011;17386;43.846;25.950;2023-02-28T14:58:23;28.75;;;12.27;;
20629;SDS011;17386;43.846;25.950;2023-02-28T15:00:57;29.55;;;13.00;;
20629;SDS011;17386;43.846;25.950;2023-02-28T15:03:35;27.85;;;11.75;;
20629;SDS011;17386;43.846;25.950;2023-02-28T15:06:05;32.88;;;14.02;;
20629;SDS011;17386;43.846;25.950;2023-02-28T15:08:38;31.10;;;13.07;;
20629;SDS011;17386;43.846;25.950;2023-02-28T15:13:40;23.88;;;11.43;;
20629;SDS011;17386;43.846;25.950;2023-02-28T15:16:19;27.52;;;11.95;;
20629;SDS011;17386;43.846;25.950;2023-02-28T15:21:21;26.02;;;10.65;;
20629;SDS011;17386;43.846;25.950;2023-02-28T15:23:59;26.40;;;11.38;;
20629;SDS011;17386;43.846;25.950;2023-02-28T15:26:29;22.58;;;9.73;;
20629;SDS011;17386;43.846;25.950;2023-02-28T15:29:17;26.58;;;11.43;;
20629;SDS011;17386;43.846;25.950;2023-02-28T15:31:46;24.65;;;11.13;;
20629;SDS011;17386;43.846;25.950;2023-02-28T15:34:57;31.73;;;12.50;;
20629;SDS011;17386;43.846;25.950;2023-02-28T15:39:56;25.90;;;11.90;;
20629;SDS011;17386;43.846;25.950;2023-02-28T15:42:23;24.35;;;10.43;;
20629;SDS011;17386;43.846;25.950;2023-02-28T15:44:53;31.33;;;13.75;;
20629;SDS011;17386;43.846;25.950;2023-02-28T15:47:20;27.13;;;11.55;;
20629;SDS011;17386;43.846;25.950;2023-02-28T15:55:14;27.73;;;12.00;;
20629;SDS011;17386;43.846;25.950;2023-02-28T15:57:48;31.58;;;13.30;;
20629;SDS011;17386;43.846;25.950;2023-02-28T16:00:21;35.30;;;15.50;;
20629;SDS011;17386;43.846;25.950;2023-02-28T16:02:48;34.55;;;13.43;;
20629;SDS011;17386;43.846;25.950;2023-02-28T16:05:19;36.35;;;15.10;;
20629;SDS011;17386;43.846;25.950;2023-02-28T16:07:58;36.50;;;14.68;;
20629;SDS011;17386;43.846;25.950;2023-02-28T16:10:27;35.22;;;15.27;;
20629;SDS011;17386;43.846;25.950;2023-02-28T16:12:54;31.35;;;13.73;;
20629;SDS011;17386;43.846;25.950;2023-02-28T16:15:23;36.20;;;14.57;;
20629;SDS011;17386;43.846;25.950;2023-02-28T16:17:54;37.15;;;13.52;;
20629;SDS011;17386;43.846;25.950;2023-02-28T16:22:48;37.03;;;15.20;;
20629;SDS011;17386;43.846;25.950;2023-02-28T16:25:14;34.70;;;14.25;;
20629;SDS011;17386;43.846;25.950;2023-02-28T16:27:41;35.90;;;14.38;;
20629;SDS011;17386;43.846;25.950;2023-02-28T16:30:19;34.40;;;13.95;;
20629;SDS011;17386;43.846;25.950;2023-02-28T16:32:47;32.33;;;13.63;;
20629;SDS011;17386;43.846;25.950;2023-02-28T16:35:13;37.72;;;15.27;;
20629;SDS011;17386;43.846;25.950;2023-02-28T16:37:39;34.88;;;14.15;;
20629;SDS011;17386;43.846;25.950;2023-02-28T16:40:05;35.30;;;14.82;;
20629;SDS011;17386;43.846;25.950;2023-02-28T16:42:31;32.80;;;13.60;;
20629;SDS011;17386;43.846;25.950;2023-02-28T16:44:57;36.22;;;15.13;;
20629;SDS011;17386;43.846;25.950;2023-02-28T16:47:23;33.50;;;13.88;;
20629;SDS011;17386;43.846;25.950;2023-02-28T16:49:51;38.20;;;13.25;;
20629;SDS011;17386;43.846;25.950;2023-02-28T16:52:17;39.40;;;15.38;;
20629;SDS011;17386;43.846;25.950;2023-02-28T16:54:42;37.25;;;14.43;;
20629;SDS011;17386;43.846;25.950;2023-02-28T16:57:18;38.67;;;15.77;;